createdAt,value
2018-01-02T00:16:27.661Z,79.6
2018-01-02T00:33:03.954Z,79.6
2018-01-02T00:49:40.299Z,79.6
2018-01-02T01:06:16.639Z,79.6
2018-01-02T01:22:52.964Z,79.2
2018-01-02T01:39:29.312Z,79.6
2018-01-02T01:56:05.708Z,79.2
2018-01-02T02:12:42.073Z,79.6
2018-01-02T02:29:18.391Z,80.0
2018-01-02T02:45:54.634Z,80.0
2018-01-02T03:02:30.824Z,79.6
2018-01-02T03:19:06.792Z,79.6
2018-01-02T03:35:42.826Z,79.6
2018-01-02T03:52:18.947Z,79.6
2018-01-02T04:08:54.875Z,80.4
2018-01-02T04:25:30.608Z,80.4
2018-01-02T04:42:06.719Z,80.4
2018-01-02T04:58:42.779Z,80.4
2018-01-02T05:15:18.907Z,80.4
2018-01-02T05:31:55.044Z,80.8
2018-01-02T05:48:31.561Z,80.8
2018-01-02T06:05:07.629Z,80.8
2018-01-02T06:21:43.765Z,81.2
2018-01-02T06:38:19.882Z,81.2
2018-01-02T06:54:56.029Z,81.2
2018-01-02T07:11:32.175Z,81.2
2018-01-02T07:44:44.957Z,81.2
2018-01-02T08:01:21.453Z,81.2
2018-01-02T08:34:34.503Z,81.2
2018-01-02T08:51:11.147Z,81.6
2018-01-02T09:07:47.869Z,81.2
2018-01-02T09:24:24.696Z,81.2
2018-01-02T09:41:01.565Z,80.4
2018-01-02T09:57:38.545Z,80.4
2018-01-02T10:14:15.592Z,80.0
2018-01-02T10:30:52.503Z,80.0
2018-01-02T10:47:29.512Z,80.4
2018-01-02T11:04:06.629Z,79.6
2018-01-02T11:20:43.807Z,79.6
2018-01-02T11:37:20.811Z,78.8
2018-01-02T11:53:57.935Z,78.8
2018-01-02T12:10:35.247Z,78.4
2018-01-02T12:43:49.904Z,78.4
2018-01-02T13:00:27.346Z,78.8
2018-01-02T13:17:04.728Z,78.4
2018-01-02T13:33:42.032Z,78.4
2018-01-02T13:50:19.332Z,78.8
2018-01-02T14:06:56.700Z,78.4
2018-01-02T14:23:34.059Z,78.0
2018-01-02T14:40:11.618Z,78.0
2018-01-02T14:56:48.622Z,77.6
2018-01-02T15:13:25.735Z,78.0
2018-01-02T15:30:02.689Z,78.0
2018-01-02T15:46:39.388Z,78.0
2018-01-02T16:03:16.223Z,78.0
2018-01-02T16:19:53.098Z,78.0
2018-01-02T16:36:29.830Z,78.0
2018-01-02T16:53:06.164Z,77.6
2018-01-02T17:09:42.417Z,77.2
2018-01-02T17:26:18.672Z,77.2
2018-01-02T17:42:54.876Z,77.2
2018-01-02T17:59:31.371Z,77.2
2018-01-02T18:16:07.643Z,76.8
2018-01-02T18:32:43.945Z,76.8
2018-01-02T18:49:20.370Z,76.8
2018-01-02T19:05:57.668Z,76.0
2018-01-02T19:22:33.486Z,76.4
2018-01-02T19:39:09.570Z,76.4
2018-01-02T19:55:49.132Z,76.0
2018-01-02T20:12:25.283Z,76.4
2018-01-02T20:28:59.486Z,76.8
2018-01-02T20:45:39.897Z,77.2
2018-01-02T21:02:15.317Z,77.6
2018-01-02T21:18:48.187Z,78.8
2018-01-02T21:35:24.149Z,79.2
2018-01-02T21:52:01.376Z,79.2
2018-01-02T22:08:36.302Z,80.0
2018-01-02T22:41:49.215Z,80.4
2018-01-02T22:58:26.268Z,80.4
2018-01-02T23:15:02.815Z,80.4
2018-01-02T23:31:39.708Z,80.8
2018-01-02T23:48:16.706Z,80.8
